sensor_id;sensor_type;location;lat;lon;timestamp;pressure;altitude;pressure_sealevel;temperature;humidity
30618;BME280;17384;51.214;9.202;2023-07-29T00:01:07;98198.25;;;16.32;100.00
30618;BME280;17384;51.214;9.202;2023-07-29T00:03:32;98197.44;;;16.31;100.00
30618;BME280;17384;51.214;9.202;2023-07-29T00:05:58;98192.28;;;16.40;100.00
30618;BME280;17384;51.214;9.202;2023-07-29T00:08:23;98195.28;;;16.38;100.00
30618;BME280;17384;51.214;9.202;2023-07-29T00:10:49;98200.47;;;16.35;100.00
30618;BME280;17384;51.214;9.202;2023-07-29T00:13:14;98196.59;;;16.25;100.00
30618;BME280;17384;51.214;9.202;2023-07-29T00:15:40;98206.44;;;16.27;100.00
30618;BME280;17384;51.214;9.202;2023-07-29T00:18:05;98205.34;;;16.22;100.00
30618;BME280;17384;51.214;9.202;2023-07-29T00:20:30;98218.19;;;16.22;100.00
30618;BME280;17384;51.214;9.202;2023-07-29T00:22:56;98209.50;;;16.35;100.00
30618;BME280;17384;51.214;9.202;2023-07-29T00:25:23;98221.56;;;16.39;100.00
30618;BME280;17384;51.214;9.202;2023-07-29T00:27:48;98218.81;;;16.34;100.00
30618;BME280;17384;51.214;9.202;2023-07-29T00:30:14;98231.72;;;16.49;100.00
30618;BME280;17384;51.214;9.202;2023-07-29T00:32:39;98224.84;;;16.36;100.00
30618;BME280;17384;51.214;9.202;2023-07-29T00:35:05;98225.38;;;16.33;100.00
30618;BME280;17384;51.214;9.202;2023-07-29T00:37:31;98226.47;;;16.32;100.00
30618;BME280;17384;51.214;9.202;2023-07-29T00:39:57;98238.53;;;16.36;100.00
30618;BME280;17384;51.214;9.202;2023-07-29T00:42:23;98226.22;;;16.39;100.00
30618;BME280;17384;51.214;9.202;2023-07-29T00:44:48;98230.38;;;16.51;100.00
30618;BME280;17384;51.214;9.202;2023-07-29T00:47:15;98231.41;;;16.35;100.00
30618;BME280;17384;51.214;9.202;2023-07-29T00:49:44;98221.53;;;16.29;100.00
30618;BME280;17384;51.214;9.202;2023-07-29T00:52:10;98216.56;;;16.26;100.00
30618;BME280;17384;51.214;9.202;2023-07-29T00:54:39;98211.13;;;16.31;100.00
30618;BME280;17384;51.214;9.202;2023-07-29T00:57:08;98225.34;;;16.28;100.00
30618;BME280;17384;51.214;9.202;2023-07-29T00:59:35;98214.34;;;16.18;100.00
30618;BME280;17384;51.214;9.202;2023-07-29T01:02:00;98214.91;;;16.20;100.00
30618;BME280;17384;51.214;9.202;2023-07-29T01:04:26;98216.03;;;16.29;100.00
30618;BME280;17384;51.214;9.202;2023-07-29T01:07:36;98223.78;;;16.47;100.00
30618;BME280;17384;51.214;9.202;2023-07-29T01:15:26;98224.09;;;16.56;100.00
30618;BME280;17384;51.214;9.202;2023-07-29T01:18:12;98227.09;;;16.54;100.00
30618;BME280;17384;51.214;9.202;2023-07-29T01:20:40;98224.34;;;16.49;100.00
30618;BME280;17384;51.214;9.202;2023-07-29T01:23:06;98229.59;;;16.61;100.00
30618;BME280;17384;51.214;9.202;2023-07-29T01:25:31;98239.69;;;16.50;100.00
30618;BME280;17384;51.214;9.202;2023-07-29T01:27:57;98241.91;;;16.58;100.00
30618;BME280;17384;51.214;9.202;2023-07-29T01:30:28;98240.28;;;16.63;100.00
30618;BME280;17384;51.214;9.202;2023-07-29T01:35:34;98250.69;;;16.61;100.00
30618;BME280;17384;51.214;9.202;2023-07-29T01:38:17;98255.13;;;16.67;100.00
30618;BME280;17384;51.214;9.202;2023-07-29T01:40:48;98256.78;;;16.68;100.00
30618;BME280;17384;51.214;9.202;2023-07-29T01:43:14;98265.81;;;16.73;100.00
30618;BME280;17384;51.214;9.202;2023-07-29T01:45:40;98261.97;;;16.69;100.00
30618;BME280;17384;51.214;9.202;2023-07-29T01:48:06;98280.50;;;16.57;100.00
30618;BME280;17384;51.214;9.202;2023-07-29T01:50:33;98273.13;;;16.57;100.00
30618;BME280;17384;51.214;9.202;2023-07-29T01:52:59;98277.22;;;16.55;100.00
30618;BME280;17384;51.214;9.202;2023-07-29T01:55:24;98288.00;;;16.67;100.00
30618;BME280;17384;51.214;9.202;2023-07-29T01:57:50;98278.41;;;16.64;100.00
30618;BME280;17384;51.214;9.202;2023-07-29T02:00:16;98271.00;;;16.65;100.00
30618;BME280;17384;51.214;9.202;2023-07-29T02:02:42;98280.66;;;16.82;100.00
30618;BME280;17384;51.214;9.202;2023-07-29T02:05:07;98294.13;;;16.94;100.00
30618;BME280;17384;51.214;9.202;2023-07-29T02:07:33;98292.19;;;16.89;100.00
30618;BME280;17384;51.214;9.202;2023-07-29T02:09:58;98278.78;;;16.98;100.00
30618;BME280;17384;51.214;9.202;2023-07-29T02:12:24;98273.84;;;16.95;100.00
30618;BME280;17384;51.214;9.202;2023-07-29T02:14:49;98280.97;;;16.91;100.00
30618;BME280;17384;51.214;9.202;2023-07-29T02:17:15;98277.63;;;16.79;100.00
30618;BME280;17384;51.214;9.202;2023-07-29T02:19:40;98278.13;;;16.71;100.00
30618;BME280;17384;51.214;9.202;2023-07-29T02:22:06;98288.00;;;16.72;100.00
30618;BME280;17384;51.214;9.202;2023-07-29T02:24:31;98292.66;;;16.76;100.00
30618;BME280;17384;51.214;9.202;2023-07-29T02:26:57;98334.56;;;16.67;100.00
30618;BME280;17384;51.214;9.202;2023-07-29T02:29:22;98283.06;;;16.64;100.00
30618;BME280;17384;51.214;9.202;2023-07-29T02:31:48;98299.72;;;16.62;100.00
30618;BME280;17384;51.214;9.202;2023-07-29T02:34:13;98297.78;;;16.57;100.00
30618;BME280;17384;51.214;9.202;2023-07-29T02:36:39;98309.00;;;16.56;100.00
30618;BME280;17384;51.214;9.202;2023-07-29T02:39:04;98318.66;;;16.64;100.00
30618;BME280;17384;51.214;9.202;2023-07-29T02:41:31;98309.28;;;16.59;100.00
30618;BME280;17384;51.214;9.202;2023-07-29T02:43:56;98313.47;;;16.67;100.00
30618;BME280;17384;51.214;9.202;2023-07-29T02:46:22;98251.56;;;16.71;100.00
30618;BME280;17384;51.214;9.202;2023-07-29T02:48:47;98260.59;;;16.67;100.00
30618;BME280;17384;51.214;9.202;2023-07-29T02:51:13;98237.31;;;16.69;100.00
30618;BME280;17384;51.214;9.202;2023-07-29T02:53:38;98241.44;;;16.67;100.00
30618;BME280;17384;51.214;9.202;2023-07-29T02:56:04;98241.16;;;16.68;100.00
30618;BME280;17384;51.214;9.202;2023-07-29T02:58:33;98233.22;;;16.67;100.00
30618;BME280;17384;51.214;9.202;2023-07-29T03:01:02;98242.78;;;16.69;100.00
30618;BME280;17384;51.214;9.202;2023-07-29T03:03:29;98223.91;;;16.68;100.00
30618;BME280;17384;51.214;9.202;2023-07-29T03:06:04;98220.63;;;16.76;100.00
30618;BME280;17384;51.214;9.202;2023-07-29T03:08:30;98220.03;;;16.69;100.00
30618;BME280;17384;51.214;9.202;2023-07-29T03:10:57;98223.34;;;16.66;100.00
30618;BME280;17384;51.214;9.202;2023-07-29T03:13:22;98217.88;;;16.66;100.00
30618;BME280;17384;51.214;9.202;2023-07-29T03:15:48;98210.75;;;16.65;100.00
30618;BME280;17384;51.214;9.202;2023-07-29T03:18:14;98221.16;;;16.68;100.00
30618;BME280;17384;51.214;9.202;2023-07-29T03:20:40;98220.06;;;16.64;100.00
30618;BME280;17384;51.214;9.202;2023-07-29T03:23:05;98205.00;;;16.71;100.00
30618;BME280;17384;51.214;9.202;2023-07-29T03:25:31;98198.69;;;16.71;100.00
30618;BME280;17384;51.214;9.202;2023-07-29T03:27:57;98198.72;;;16.76;100.00
30618;BME280;17384;51.214;9.202;2023-07-29T03:30:22;98200.91;;;16.74;100.00
30618;BME280;17384;51.214;9.202;2023-07-29T03:32:48;98206.34;;;16.69;100.00
30618;BME280;17384;51.214;9.202;2023-07-29T03:35:14;98202.53;;;16.70;100.00
30618;BME280;17384;51.214;9.202;2023-07-29T03:37:40;98196.78;;;16.71;100.00
30618;BME280;17384;51.214;9.202;2023-07-29T03:40:06;98201.16;;;16.67;100.00
30618;BME280;17384;51.214;9.202;2023-07-29T03:42:32;98197.59;;;16.72;100.00
30618;BME280;17384;51.214;9.202;2023-07-29T03:44:57;98189.66;;;16.70;100.00
30618;BME280;17384;51.214;9.202;2023-07-29T03:47:23;98184.47;;;16.74;100.00
30618;BME280;17384;51.214;9.202;2023-07-29T03:49:48;98173.78;;;16.72;100.00
30618;BME280;17384;51.214;9.202;2023-07-29T03:52:14;98177.88;;;16.70;100.00
30618;BME280;17384;51.214;9.202;2023-07-29T03:54:39;98182.56;;;16.79;100.00
30618;BME280;17384;51.214;9.202;2023-07-29T03:57:05;98167.75;;;16.80;100.00
30618;BME280;17384;51.214;9.202;2023-07-29T03:59:30;98169.66;;;16.75;100.00
30618;BME280;17384;51.214;9.202;2023-07-29T04:01:56;98181.72;;;16.74;100.00
30618;BME280;17384;51.214;9.202;2023-07-29T04:04:21;98175.16;;;16.75;100.00
30618;BME280;17384;51.214;9.202;2023-07-29T04:06:47;98173.50;;;16.74;100.00
30618;BME280;17384;51.214;9.202;2023-07-29T04:09:12;98169.41;;;16.76;100.00
30618;BME280;17384;51.214;9.202;2023-07-29T04:11:38;98171.88;;;16.83;100.00
30618;BME280;17384;51.214;9.202;2023-07-29T04:14:03;98174.59;;;16.78;100.00
30618;BME280;17384;51.214;9.202;2023-07-29T04:16:29;98172.16;;;16.86;100.00
30618;BME280;17384;51.214;9.202;2023-07-29T04:18:54;98172.44;;;16.90;100.00
30618;BME280;17384;51.214;9.202;2023-07-29T04:21:20;98165.31;;;16.89;100.00
30618;BME280;17384;51.214;9.202;2023-07-29T04:23:45;98161.19;;;16.97;100.00
30618;BME280;17384;51.214;9.202;2023-07-29T04:26:11;98150.53;;;16.90;100.00
30618;BME280;17384;51.214;9.202;2023-07-29T04:28:36;98151.91;;;16.92;100.00
30618;BME280;17384;51.214;9.202;2023-07-29T04:31:02;98165.88;;;16.91;100.00
30618;BME280;17384;51.214;9.202;2023-07-29T04:33:29;98154.38;;;16.94;100.00
30618;BME280;17384;51.214;9.202;2023-07-29T04:35:54;98156.28;;;16.88;100.00
30618;BME280;17384;51.214;9.202;2023-07-29T04:38:20;98147.53;;;16.91;100.00
30618;BME280;17384;51.214;9.202;2023-07-29T04:40:45;98153.81;;;16.92;100.00
30618;BME280;17384;51.214;9.202;2023-07-29T04:43:11;98164.25;;;16.95;100.00
30618;BME280;17384;51.214;9.202;2023-07-29T04:45:42;98148.59;;;17.01;100.00
30618;BME280;17384;51.214;9.202;2023-07-29T04:48:07;98145.88;;;17.01;100.00
30618;BME280;17384;51.214;9.202;2023-07-29T04:50:33;98156.56;;;17.07;100.00
30618;BME280;17384;51.214;9.202;2023-07-29T04:52:58;98154.66;;;17.13;100.00
30618;BME280;17384;51.214;9.202;2023-07-29T04:55:24;98147.25;;;17.08;100.00
30618;BME280;17384;51.214;9.202;2023-07-29T04:57:49;98157.13;;;17.14;100.00
30618;BME280;17384;51.214;9.202;2023-07-29T05:00:15;98150.25;;;17.27;100.00
30618;BME280;17384;51.214;9.202;2023-07-29T05:02:40;98149.97;;;17.34;100.00
30618;BME280;17384;51.214;9.202;2023-07-29T05:05:06;98138.47;;;17.37;100.00
30618;BME280;17384;51.214;9.202;2023-07-29T05:07:31;98145.31;;;17.34;100.00
30618;BME280;17384;51.214;9.202;2023-07-29T05:09:57;98143.41;;;17.35;100.00
30618;BME280;17384;51.214;9.202;2023-07-29T05:12:22;98156.84;;;17.26;100.00
30618;BME280;17384;51.214;9.202;2023-07-29T05:14:48;98148.63;;;17.41;100.00
30618;BME280;17384;51.214;9.202;2023-07-29T05:17:13;98137.09;;;17.39;100.00
30618;BME280;17384;51.214;9.202;2023-07-29T05:19:39;98136.28;;;17.49;100.00
30618;BME280;17384;51.214;9.202;2023-07-29T05:22:04;98136.28;;;17.39;100.00
30618;BME280;17384;51.214;9.202;2023-07-29T05:24:30;98140.09;;;17.58;100.00
30618;BME280;17384;51.214;9.202;2023-07-29T05:26:55;98132.94;;;17.57;100.00
30618;BME280;17384;51.214;9.202;2023-07-29T05:29:20;98136.50;;;17.63;100.00
30618;BME280;17384;51.214;9.202;2023-07-29T05:31:46;98131.31;;;17.66;100.00
30618;BME280;17384;51.214;9.202;2023-07-29T05:34:11;98138.47;;;17.67;100.00
30618;BME280;17384;51.214;9.202;2023-07-29T05:36:37;98142.00;;;17.57;100.00
30618;BME280;17384;51.214;9.202;2023-07-29T05:39:03;98146.41;;;17.69;100.00
30618;BME280;17384;51.214;9.202;2023-07-29T05:41:28;98137.88;;;17.60;100.00
30618;BME280;17384;51.214;9.202;2023-07-29T05:43:54;98130.75;;;17.59;100.00
30618;BME280;17384;51.214;9.202;2023-07-29T05:46:22;98140.63;;;17.60;100.00
30618;BME280;17384;51.214;9.202;2023-07-29T05:48:48;98132.66;;;17.64;100.00
30618;BME280;17384;51.214;9.202;2023-07-29T05:51:16;98140.94;;;17.69;100.00
30618;BME280;17384;51.214;9.202;2023-07-29T05:53:42;98129.13;;;17.68;100.00
30618;BME280;17384;51.214;9.202;2023-07-29T05:56:07;98140.03;;;17.88;100.00
30618;BME280;17384;51.214;9.202;2023-07-29T05:58:32;98140.88;;;17.84;100.00
30618;BME280;17384;51.214;9.202;2023-07-29T06:00:58;98135.34;;;17.99;100.00
30618;BME280;17384;51.214;9.202;2023-07-29T06:03:24;98133.44;;;17.95;100.00
30618;BME280;17384;51.214;9.202;2023-07-29T06:05:50;98134.53;;;17.99;100.00
30618;BME280;17384;51.214;9.202;2023-07-29T06:08:16;98143.28;;;18.06;100.00
30618;BME280;17384;51.214;9.202;2023-07-29T06:10:41;98132.25;;;18.16;100.00
30618;BME280;17384;51.214;9.202;2023-07-29T06:13:06;98135.47;;;18.33;100.00
30618;BME280;17384;51.214;9.202;2023-07-29T06:15:32;98133.72;;;18.57;100.00
30618;BME280;17384;51.214;9.202;2023-07-29T06:17:57;98212.53;;;18.67;100.00
30618;BME280;17384;51.214;9.202;2023-07-29T06:20:23;98149.66;;;18.55;100.00
30618;BME280;17384;51.214;9.202;2023-07-29T06:22:49;98161.44;;;18.66;100.00
30618;BME280;17384;51.214;9.202;2023-07-29T06:25:14;98160.59;;;18.66;100.00
30618;BME280;17384;51.214;9.202;2023-07-29T06:27:40;98156.28;;;18.59;100.00
30618;BME280;17384;51.214;9.202;2023-07-29T06:30:05;98152.72;;;18.44;100.00
30618;BME280;17384;51.214;9.202;2023-07-29T06:32:31;98160.22;;;18.28;100.00
30618;BME280;17384;51.214;9.202;2023-07-29T06:34:57;98146.25;;;18.19;100.00
30618;BME280;17384;51.214;9.202;2023-07-29T06:37:22;98149.28;;;18.18;100.00
30618;BME280;17384;51.214;9.202;2023-07-29T06:39:48;98155.56;;;18.23;100.00
30618;BME280;17384;51.214;9.202;2023-07-29T06:42:13;98160.78;;;18.25;100.00
30618;BME280;17384;51.214;9.202;2023-07-29T06:44:40;98170.13;;;18.24;100.00
30618;BME280;17384;51.214;9.202;2023-07-29T06:47:05;98161.88;;;18.24;100.00
30618;BME280;17384;51.214;9.202;2023-07-29T06:49:34;98166.84;;;18.22;100.00
30618;BME280;17384;51.214;9.202;2023-07-29T06:52:00;98150.03;;;18.34;100.00
30618;BME280;17384;51.214;9.202;2023-07-29T06:54:26;98140.94;;;18.38;100.00
30618;BME280;17384;51.214;9.202;2023-07-29T06:56:52;98145.81;;;18.56;100.00
30618;BME280;17384;51.214;9.202;2023-07-29T06:59:17;98156.75;;;18.67;100.00
30618;BME280;17384;51.214;9.202;2023-07-29T07:01:43;98150.06;;;18.83;100.00
30618;BME280;17384;51.214;9.202;2023-07-29T07:04:08;98133.63;;;18.78;100.00
30618;BME280;17384;51.214;9.202;2023-07-29T07:06:34;98130.03;;;18.77;100.00
30618;BME280;17384;51.214;9.202;2023-07-29T07:08:59;98143.22;;;18.80;100.00
30618;BME280;17384;51.214;9.202;2023-07-29T07:11:24;98133.06;;;18.76;100.00
30618;BME280;17384;51.214;9.202;2023-07-29T07:13:50;98137.50;;;18.72;100.00
30618;BME280;17384;51.214;9.202;2023-07-29T07:16:15;98164.94;;;18.82;100.00
30618;BME280;17384;51.214;9.202;2023-07-29T07:18:41;98164.34;;;18.85;100.00
30618;BME280;17384;51.214;9.202;2023-07-29T07:21:06;98176.41;;;18.89;100.00
30618;BME280;17384;51.214;9.202;2023-07-29T07:23:32;98168.69;;;18.91;100.00
30618;BME280;17384;51.214;9.202;2023-07-29T07:25:57;98177.00;;;18.86;100.00
30618;BME280;17384;51.214;9.202;2023-07-29T07:28:22;98173.16;;;18.87;100.00
30618;BME280;17384;51.214;9.202;2023-07-29T07:30:48;98153.91;;;18.87;100.00
30618;BME280;17384;51.214;9.202;2023-07-29T07:33:13;98160.25;;;18.82;100.00
30618;BME280;17384;51.214;9.202;2023-07-29T07:35:39;98150.66;;;18.80;100.00
30618;BME280;17384;51.214;9.202;2023-07-29T07:38:07;98142.91;;;18.87;100.00
30618;BME280;17384;51.214;9.202;2023-07-29T07:40:38;98132.41;;;18.89;100.00
30618;BME280;17384;51.214;9.202;2023-07-29T07:43:04;98142.13;;;18.81;100.00
30618;BME280;17384;51.214;9.202;2023-07-29T07:45:32;98156.34;;;18.88;100.00
30618;BME280;17384;51.214;9.202;2023-07-29T07:47:58;98162.38;;;18.90;100.00
30618;BME280;17384;51.214;9.202;2023-07-29T07:50:23;98150.53;;;18.95;100.00
30618;BME280;17384;51.214;9.202;2023-07-29T07:52:49;98145.78;;;19.06;100.00
30618;BME280;17384;51.214;9.202;2023-07-29T07:55:15;98147.16;;;19.08;100.00
30618;BME280;17384;51.214;9.202;2023-07-29T07:57:40;98146.06;;;19.04;100.00
30618;BME280;17384;51.214;9.202;2023-07-29T08:00:06;98146.56;;;19.11;100.00
30618;BME280;17384;51.214;9.202;2023-07-29T08:02:32;98142.22;;;19.05;100.00
30618;BME280;17384;51.214;9.202;2023-07-29T08:04:57;98138.09;;;19.03;100.00
30618;BME280;17384;51.214;9.202;2023-07-29T08:07:23;98144.69;;;19.07;100.00
30618;BME280;17384;51.214;9.202;2023-07-29T08:09:48;98158.72;;;19.05;100.00
30618;BME280;17384;51.214;9.202;2023-07-29T08:12:13;98158.97;;;19.09;100.00
30618;BME280;17384;51.214;9.202;2023-07-29T08:14:39;98159.25;;;19.07;100.00
30618;BME280;17384;51.214;9.202;2023-07-29T08:17:04;98157.56;;;19.11;100.00
30618;BME280;17384;51.214;9.202;2023-07-29T08:19:30;98139.69;;;19.14;100.00
30618;BME280;17384;51.214;9.202;2023-07-29T08:21:55;98147.41;;;19.12;100.00
30618;BME280;17384;51.214;9.202;2023-07-29T08:24:21;98149.31;;;19.11;100.00
30618;BME280;17384;51.214;9.202;2023-07-29T08:26:46;98165.19;;;19.19;100.00
30618;BME280;17384;51.214;9.202;2023-07-29T08:29:12;98162.19;;;19.16;100.00
30618;BME280;17384;51.214;9.202;2023-07-29T08:31:38;98173.97;;;19.21;100.00
30618;BME280;17384;51.214;9.202;2023-07-29T08:34:04;98173.41;;;19.24;100.00
30618;BME280;17384;51.214;9.202;2023-07-29T08:36:29;98169.78;;;19.29;100.00
30618;BME280;17384;51.214;9.202;2023-07-29T08:38:54;98176.59;;;19.42;100.00
30618;BME280;17384;51.214;9.202;2023-07-29T08:41:32;98182.03;;;19.47;98.79
30618;BME280;17384;51.214;9.202;2023-07-29T08:44:18;98169.13;;;19.42;98.00
30618;BME280;17384;51.214;9.202;2023-07-29T08:46:46;98181.69;;;19.87;98.39
30618;BME280;17384;51.214;9.202;2023-07-29T08:49:12;98177.72;;;20.22;97.21
30618;BME280;17384;51.214;9.202;2023-07-29T08:51:39;98165.50;;;20.28;95.39
30618;BME280;17384;51.214;9.202;2023-07-29T08:54:07;98169.69;;;20.50;93.02
30618;BME280;17384;51.214;9.202;2023-07-29T08:56:34;98177.03;;;20.78;91.40
30618;BME280;17384;51.214;9.202;2023-07-29T08:58:59;98168.53;;;20.75;92.85
30618;BME280;17384;51.214;9.202;2023-07-29T09:01:27;98167.38;;;20.57;90.88
30618;BME280;17384;51.214;9.202;2023-07-29T09:03:53;98166.78;;;20.60;88.37
30618;BME280;17384;51.214;9.202;2023-07-29T09:06:19;98185.06;;;21.50;90.35
30618;BME280;17384;51.214;9.202;2023-07-29T09:08:48;98168.34;;;21.60;83.36
30618;BME280;17384;51.214;9.202;2023-07-29T09:11:14;98171.63;;;21.89;84.64
30618;BME280;17384;51.214;9.202;2023-07-29T09:13:42;98162.19;;;22.50;83.85
30618;BME280;17384;51.214;9.202;2023-07-29T09:16:09;98162.41;;;22.40;82.02
30618;BME280;17384;51.214;9.202;2023-07-29T09:18:34;98165.34;;;22.03;86.25
30618;BME280;17384;51.214;9.202;2023-07-29T09:21:00;98183.50;;;21.76;83.66
30618;BME280;17384;51.214;9.202;2023-07-29T09:23:26;98189.53;;;21.78;84.02
30618;BME280;17384;51.214;9.202;2023-07-29T09:26:01;98182.88;;;21.79;84.11
30618;BME280;17384;51.214;9.202;2023-07-29T09:28:33;98162.09;;;21.36;83.76
30618;BME280;17384;51.214;9.202;2023-07-29T09:30:59;98156.00;;;21.20;82.60
30618;BME280;17384;51.214;9.202;2023-07-29T09:33:28;98172.19;;;21.26;81.51
30618;BME280;17384;51.214;9.202;2023-07-29T09:35:54;98179.53;;;21.50;77.46
30618;BME280;17384;51.214;9.202;2023-07-29T09:38:26;98171.63;;;22.36;78.71
30618;BME280;17384;51.214;9.202;2023-07-29T09:40:55;98119.97;;;23.08;76.57
30618;BME280;17384;51.214;9.202;2023-07-29T09:43:25;98135.72;;;22.85;72.87
30618;BME280;17384;51.214;9.202;2023-07-29T09:45:52;98129.69;;;22.83;76.36
30618;BME280;17384;51.214;9.202;2023-07-29T09:48:22;98140.13;;;22.73;73.19
30618;BME280;17384;51.214;9.202;2023-07-29T09:50:48;98131.50;;;22.88;72.98
30618;BME280;17384;51.214;9.202;2023-07-29T09:53:14;98140.03;;;23.14;71.53
30618;BME280;17384;51.214;9.202;2023-07-29T09:55:39;98123.09;;;22.93;72.14
30618;BME280;17384;51.214;9.202;2023-07-29T09:58:05;98132.28;;;23.47;72.04
30618;BME280;17384;51.214;9.202;2023-07-29T10:00:33;98132.81;;;23.49;73.17
30618;BME280;17384;51.214;9.202;2023-07-29T10:03:00;98138.41;;;23.88;69.48
30618;BME280;17384;51.214;9.202;2023-07-29T10:05:26;98149.75;;;24.09;68.78
30618;BME280;17384;51.214;9.202;2023-07-29T10:10:20;98129.16;;;23.17;69.47
30618;BME280;17384;51.214;9.202;2023-07-29T10:12:45;98128.06;;;23.05;70.55
30618;BME280;17384;51.214;9.202;2023-07-29T10:15:11;98134.41;;;22.69;70.71
30618;BME280;17384;51.214;9.202;2023-07-29T10:17:38;98126.78;;;22.75;72.99
30618;BME280;17384;51.214;9.202;2023-07-29T10:20:08;98130.94;;;22.63;72.09
30618;BME280;17384;51.214;9.202;2023-07-29T10:22:43;98134.03;;;22.21;73.31
30618;BME280;17384;51.214;9.202;2023-07-29T10:25:21;98123.00;;;22.21;74.18
30618;BME280;17384;51.214;9.202;2023-07-29T10:27:49;98136.19;;;22.38;72.33
30618;BME280;17384;51.214;9.202;2023-07-29T10:30:17;98136.16;;;22.51;74.69
30618;BME280;17384;51.214;9.202;2023-07-29T10:32:44;98135.34;;;23.01;71.87
30618;BME280;17384;51.214;9.202;2023-07-29T10:35:13;98112.84;;;22.93;69.25
30618;BME280;17384;51.214;9.202;2023-07-29T10:37:39;98113.66;;;23.39;68.97
30618;BME280;17384;51.214;9.202;2023-07-29T10:40:07;98127.50;;;23.61;68.29
30618;BME280;17384;51.214;9.202;2023-07-29T10:42:33;98127.69;;;23.95;65.74
30618;BME280;17384;51.214;9.202;2023-07-29T10:44:58;98123.81;;;24.45;64.71
30618;BME280;17384;51.214;9.202;2023-07-29T10:47:27;98117.00;;;24.59;65.83
30618;BME280;17384;51.214;9.202;2023-07-29T10:49:58;98106.00;;;24.37;64.94
30618;BME280;17384;51.214;9.202;2023-07-29T10:54:56;98097.97;;;25.10;61.69
30618;BME280;17384;51.214;9.202;2023-07-29T10:57:34;98116.53;;;25.70;61.82
30618;BME280;17384;51.214;9.202;2023-07-29T11:00:00;98098.91;;;25.22;62.00
30618;BME280;17384;51.214;9.202;2023-07-29T11:02:31;98096.16;;;24.88;63.84
30618;BME280;17384;51.214;9.202;2023-07-29T11:04:57;98092.22;;;24.15;63.69
30618;BME280;17384;51.214;9.202;2023-07-29T11:07:24;98085.19;;;24.09;65.98
30618;BME280;17384;51.214;9.202;2023-07-29T11:09:58;98096.78;;;24.11;66.22
30618;BME280;17384;51.214;9.202;2023-07-29T11:12:49;98101.19;;;24.12;67.08
30618;BME280;17384;51.214;9.202;2023-07-29T11:15:25;98092.09;;;23.80;64.89
30618;BME280;17384;51.214;9.202;2023-07-29T11:20:31;98089.13;;;23.46;67.92
30618;BME280;17384;51.214;9.202;2023-07-29T11:23:01;98097.91;;;23.17;67.16
30618;BME280;17384;51.214;9.202;2023-07-29T11:25:30;98089.31;;;23.27;67.40
30618;BME280;17384;51.214;9.202;2023-07-29T11:27:58;98082.16;;;23.26;67.42
30618;BME280;17384;51.214;9.202;2023-07-29T11:30:24;98088.38;;;23.54;67.67
30618;BME280;17384;51.214;9.202;2023-07-29T11:32:54;98104.91;;;23.99;65.74
30618;BME280;17384;51.214;9.202;2023-07-29T11:35:20;98097.88;;;24.32;66.67
30618;BME280;17384;51.214;9.202;2023-07-29T11:37:48;98114.22;;;24.68;64.65
30618;BME280;17384;51.214;9.202;2023-07-29T11:40:19;98110.03;;;24.88;64.34
30618;BME280;17384;51.214;9.202;2023-07-29T11:42:46;98115.38;;;24.93;63.78
30618;BME280;17384;51.214;9.202;2023-07-29T11:45:13;98093.69;;;24.12;62.92
30618;BME280;17384;51.214;9.202;2023-07-29T11:47:38;98097.34;;;23.90;64.13
30618;BME280;17384;51.214;9.202;2023-07-29T11:50:08;98111.25;;;23.68;63.70
30618;BME280;17384;51.214;9.202;2023-07-29T11:52:44;98110.84;;;23.83;64.15
30618;BME280;17384;51.214;9.202;2023-07-29T11:55:10;98109.59;;;24.29;64.76
30618;BME280;17384;51.214;9.202;2023-07-29T11:57:37;98107.00;;;24.41;62.01
30618;BME280;17384;51.214;9.202;2023-07-29T12:00:04;98110.63;;;24.68;64.56
30618;BME280;17384;51.214;9.202;2023-07-29T12:02:32;98111.31;;;24.73;61.14
30618;BME280;17384;51.214;9.202;2023-07-29T12:04:58;98110.03;;;24.88;62.08
30618;BME280;17384;51.214;9.202;2023-07-29T12:07:24;98095.91;;;24.41;58.41
30618;BME280;17384;51.214;9.202;2023-07-29T12:09:50;98096.91;;;23.97;61.69
30618;BME280;17384;51.214;9.202;2023-07-29T12:12:17;98094.19;;;23.75;62.47
30618;BME280;17384;51.214;9.202;2023-07-29T12:14:45;98106.25;;;23.48;63.24
30618;BME280;17384;51.214;9.202;2023-07-29T12:17:12;98109.88;;;23.57;63.89
30618;BME280;17384;51.214;9.202;2023-07-29T12:19:39;98109.97;;;23.43;64.38
30618;BME280;17384;51.214;9.202;2023-07-29T12:22:07;98121.59;;;23.09;63.73
30618;BME280;17384;51.214;9.202;2023-07-29T12:24:35;98118.94;;;23.71;65.27
30618;BME280;17384;51.214;9.202;2023-07-29T12:27:01;98127.38;;;23.97;63.45
30618;BME280;17384;51.214;9.202;2023-07-29T12:29:27;98127.44;;;24.06;61.51
30618;BME280;17384;51.214;9.202;2023-07-29T12:32:03;98121.06;;;24.14;61.06
30618;BME280;17384;51.214;9.202;2023-07-29T12:34:30;98131.22;;;23.87;62.44
30618;BME280;17384;51.214;9.202;2023-07-29T12:36:57;98126.31;;;24.15;61.41
30618;BME280;17384;51.214;9.202;2023-07-29T12:39:28;98121.91;;;24.14;62.29
30618;BME280;17384;51.214;9.202;2023-07-29T12:41:55;98126.34;;;24.24;62.27
30618;BME280;17384;51.214;9.202;2023-07-29T12:44:39;98136.00;;;24.35;63.37
30618;BME280;17384;51.214;9.202;2023-07-29T12:47:06;98137.72;;;24.14;60.84
30618;BME280;17384;51.214;9.202;2023-07-29T12:49:32;98147.16;;;24.04;63.33
30618;BME280;17384;51.214;9.202;2023-07-29T12:51:58;98198.88;;;23.86;62.10
30618;BME280;17384;51.214;9.202;2023-07-29T12:54:24;98152.59;;;23.87;61.93
30618;BME280;17384;51.214;9.202;2023-07-29T12:56:49;98138.09;;;23.90;62.21
30618;BME280;17384;51.214;9.202;2023-07-29T12:59:15;98131.03;;;24.15;61.39
30618;BME280;17384;51.214;9.202;2023-07-29T13:01:41;98127.69;;;24.26;60.87
30618;BME280;17384;51.214;9.202;2023-07-29T13:04:06;98122.38;;;24.16;61.48
30618;BME280;17384;51.214;9.202;2023-07-29T13:06:32;98117.00;;;24.11;61.95